Strona główna
METAR-TAF:

METAR-TAF

Lotnisko :

Port lotniczy Bruksela

Bruksela, Belgia

Szerokość geograficzna: 50-54N, Długość geograficzna: 004-32E, wysokość: 55 m

Aktualna obserwacja pogody

Raport powstał 47 minut temu, godzina 12:20 UTC
Wiatr 5 kt od wschód, zmienny między północno-północny wschód i wschodnio-południowy wschód
Temperatura 23°C
Wilgotność 47%
Ciśnienie 1015 hPa
Widzialność 10 km lub więcej
Mało chmury na wysokości 4600 ft

METAR: EBBR 171220Z 08005KT 020V110 9999 FEW046 23/11 Q1015 NOSIG

czas: 15:07 (13:07 UTC)

Prognoza

Raport powstał 2 godziny i 3 minut temu, godzina 11:04 UTC
Prognoza ważna od 17 godzina 12 UTC do 18 godzina 18 UTC
Wiatr 5 kt z kierunków zmiennych
Widzialność 10 km lub więcej
Mało chmury na wysokości 3000 ft
Stopniowe zmiany
od 18 godzina 12 UTC do 18 godzina 14 UTC
Wiatr 10 kt od południowy zachód

TAF: EBBR 171104Z 1712/1818 VRB05KT 9999 FEW030 BECMG 1812/1814 22010KT

Obserwacja i prognoza pogody dla ponad 4000 lotnisk (raport METAR i TAF).

Dostępne stacje oznaczono żółtymi i czerwonymi punktami na mapie.

Najedź kursorem aby zobaczyć nazwę stacji.

Kliknij aby zobaczyć obserwacje i prognozy pogody.

Aby zmienić mapę: kliknij na zielony przycisk z czarnym krzyżykiem, aby powiększyć; na zielony przycisk z myślnikiem, aby pomniejszyć; na zielone strzałki, aby przejść do map sąsiednich.


METAR-TAF: